createdAt,value
2023-02-14T00:00:15.307Z,16.20
2023-02-14T00:01:15.302Z,15.10
2023-02-14T00:02:15.315Z,14.60
2023-02-14T00:03:15.294Z,16.00
2023-02-14T00:04:15.355Z,18.10
2023-02-14T00:05:15.290Z,17.90
2023-02-14T00:06:15.299Z,16.00
2023-02-14T00:07:15.301Z,17.00
2023-02-14T00:08:15.252Z,15.60
2023-02-14T00:09:15.253Z,15.80
2023-02-14T00:10:15.238Z,15.80
2023-02-14T00:11:15.254Z,16.40
2023-02-14T00:12:15.230Z,18.60
2023-02-14T00:13:15.250Z,15.60
2023-02-14T00:14:15.216Z,14.60
2023-02-14T00:15:15.219Z,16.70
2023-02-14T00:16:15.313Z,16.00
2023-02-14T00:17:15.234Z,15.20
2023-02-14T00:18:15.207Z,16.50
2023-02-14T00:19:15.193Z,14.10
2023-02-14T00:20:15.197Z,15.70
2023-02-14T00:21:15.194Z,14.40
2023-02-14T00:22:15.184Z,15.10
2023-02-14T00:23:15.197Z,15.70
2023-02-14T00:24:15.168Z,16.50
2023-02-14T00:25:15.159Z,16.30
2023-02-14T00:26:15.376Z,16.20
2023-02-14T00:27:15.138Z,15.70
2023-02-14T00:28:15.140Z,16.60
2023-02-14T00:29:15.164Z,17.10
2023-02-14T00:30:15.191Z,14.10
2023-02-14T00:31:15.190Z,16.20
2023-02-14T00:32:15.229Z,15.20
2023-02-14T00:33:15.112Z,14.30
2023-02-14T00:34:15.115Z,16.10
2023-02-14T00:35:15.110Z,15.80
2023-02-14T00:36:15.123Z,16.30
2023-02-14T00:37:15.119Z,18.10
2023-02-14T00:38:15.095Z,17.70
2023-02-14T00:39:15.089Z,18.40
2023-02-14T00:40:15.367Z,18.40
2023-02-14T00:41:15.072Z,16.00
2023-02-14T00:42:15.094Z,19.20
2023-02-14T00:43:15.063Z,17.50
2023-02-14T00:44:15.057Z,18.40
2023-02-14T00:45:15.045Z,16.50
2023-02-14T00:46:15.069Z,17.80
2023-02-14T00:47:15.034Z,17.70
2023-02-14T00:48:15.057Z,18.10
2023-02-14T00:49:15.024Z,16.40
2023-02-14T00:50:15.030Z,18.40
2023-02-14T00:51:15.026Z,16.90
2023-02-14T00:52:15.014Z,18.70
2023-02-14T00:53:15.009Z,20.80
2023-02-14T00:54:15.016Z,17.60
2023-02-14T00:55:15.021Z,18.30
2023-02-14T00:56:14.989Z,18.20
2023-02-14T00:57:14.989Z,18.40
2023-02-14T00:58:14.983Z,17.60
2023-02-14T00:59:14.969Z,16.90
2023-02-14T01:00:15.021Z,19.10
2023-02-14T01:01:14.978Z,16.20
2023-02-14T01:02:14.962Z,18.90
2023-02-14T01:03:14.946Z,19.10
2023-02-14T01:04:14.950Z,20.60
2023-02-14T01:05:14.943Z,20.80
2023-02-14T01:06:14.971Z,22.10
2023-02-14T01:07:14.977Z,20.70
2023-02-14T01:08:14.924Z,18.30
2023-02-14T01:09:14.917Z,19.10
2023-02-14T01:10:14.914Z,18.60
2023-02-14T01:11:14.928Z,17.30
2023-02-14T01:12:14.911Z,17.10
2023-02-14T01:13:14.917Z,16.10
2023-02-14T01:14:14.887Z,17.20
2023-02-14T01:15:14.888Z,17.50
2023-02-14T01:16:14.901Z,16.20
2023-02-14T01:17:14.873Z,17.10
2023-02-14T01:18:14.886Z,16.90
2023-02-14T01:19:14.888Z,17.20
2023-02-14T01:20:14.862Z,18.10
2023-02-14T01:21:14.886Z,18.10
2023-02-14T01:22:14.863Z,16.90
2023-02-14T01:23:14.864Z,17.90
2023-02-14T01:24:14.866Z,17.70
2023-02-14T01:25:14.847Z,17.30
2023-02-14T01:26:14.833Z,18.20
2023-02-14T01:27:14.833Z,18.50
2023-02-14T01:28:14.821Z,20.00
2023-02-14T01:29:14.825Z,20.10
2023-02-14T01:30:14.896Z,25.60
2023-02-14T01:31:14.910Z,31.20
2023-02-14T01:32:14.896Z,40.60
2023-02-14T01:33:14.792Z,44.30
2023-02-14T01:34:14.789Z,37.00
2023-02-14T01:35:14.787Z,23.30
2023-02-14T01:36:14.801Z,19.60
2023-02-14T01:37:14.767Z,21.00
2023-02-14T01:38:14.771Z,17.30
2023-02-14T01:39:14.769Z,19.90
2023-02-14T01:40:14.755Z,21.00
2023-02-14T01:41:14.748Z,21.00
2023-02-14T01:42:14.828Z,155.40
2023-02-14T01:43:14.733Z,53.10
2023-02-14T01:44:14.732Z,45.70
2023-02-14T01:45:14.730Z,39.10
2023-02-14T01:46:14.804Z,40.00
2023-02-14T01:47:14.752Z,44.00
2023-02-14T01:48:14.718Z,25.10
2023-02-14T01:49:14.697Z,26.70
2023-02-14T01:50:14.722Z,22.60
2023-02-14T01:51:14.691Z,22.90
2023-02-14T01:52:14.687Z,24.00
2023-02-14T01:53:14.705Z,22.00
2023-02-14T01:54:14.727Z,22.40
2023-02-14T01:55:14.673Z,23.60
2023-02-14T01:56:14.675Z,71.20
2023-02-14T01:57:14.665Z,82.70
2023-02-14T01:58:14.660Z,96.10
2023-02-14T01:59:14.655Z,286.20
2023-02-14T02:00:14.661Z,308.00
2023-02-14T02:01:14.738Z,253.80
2023-02-14T02:02:14.656Z,221.60
2023-02-14T02:03:14.644Z,87.90
2023-02-14T02:04:14.648Z,59.00
2023-02-14T02:05:14.647Z,28.20
2023-02-14T02:06:14.616Z,25.10
2023-02-14T02:07:14.610Z,28.90
2023-02-14T02:08:14.604Z,66.20
2023-02-14T02:09:14.595Z,40.60
2023-02-14T02:10:14.595Z,98.10
2023-02-14T02:11:14.601Z,127.40
2023-02-14T02:12:14.586Z,115.40
2023-02-14T02:13:14.592Z,162.70
2023-02-14T02:14:14.574Z,59.60
2023-02-14T02:15:14.585Z,51.40
2023-02-14T02:16:14.575Z,47.70
2023-02-14T02:17:14.557Z,34.70
2023-02-14T02:18:14.547Z,44.00
2023-02-14T02:19:14.538Z,42.90
2023-02-14T02:20:14.536Z,26.10
2023-02-14T02:21:14.544Z,41.00
2023-02-14T02:22:14.542Z,24.50
2023-02-14T02:23:14.513Z,35.80
2023-02-14T02:24:14.522Z,27.30
2023-02-14T02:25:14.517Z,35.00
2023-02-14T02:26:14.497Z,20.40
2023-02-14T02:27:14.513Z,24.50
2023-02-14T02:28:14.481Z,79.80
2023-02-14T02:29:14.475Z,40.20
2023-02-14T02:30:14.550Z,24.40
2023-02-14T02:31:14.512Z,20.20
2023-02-14T02:32:14.505Z,17.00
2023-02-14T02:33:14.450Z,16.50
2023-02-14T02:34:14.462Z,15.60
2023-02-14T02:35:14.457Z,16.50
2023-02-14T02:36:14.437Z,19.60
2023-02-14T02:37:14.481Z,23.80
2023-02-14T02:38:14.428Z,15.90
2023-02-14T02:39:14.413Z,21.60
2023-02-14T02:40:14.407Z,17.60
2023-02-14T02:41:14.442Z,17.10
2023-02-14T02:42:14.469Z,16.80
2023-02-14T02:43:14.396Z,16.80
2023-02-14T02:44:14.415Z,18.30
2023-02-14T02:45:14.394Z,16.40
2023-02-14T02:46:14.520Z,15.20
2023-02-14T02:47:14.384Z,26.30
2023-02-14T02:48:14.369Z,22.10
2023-02-14T02:49:14.356Z,21.50
2023-02-14T02:50:14.356Z,23.60
2023-02-14T02:51:14.343Z,16.20
2023-02-14T02:52:14.362Z,15.40
2023-02-14T02:53:14.336Z,16.50
2023-02-14T02:54:14.327Z,14.50
2023-02-14T02:55:14.324Z,16.20
2023-02-14T02:56:14.308Z,34.70
2023-02-14T02:57:14.304Z,21.50
2023-02-14T02:58:14.333Z,36.20
2023-02-14T02:59:14.286Z,22.30
2023-02-14T03:00:14.284Z,30.20
2023-02-14T03:01:14.318Z,19.50
2023-02-14T03:02:14.276Z,15.90
2023-02-14T03:03:14.262Z,14.50
2023-02-14T03:04:14.269Z,19.10
2023-02-14T03:05:14.480Z,17.10
2023-02-14T03:06:14.253Z,17.70
2023-02-14T03:07:14.260Z,29.40
2023-02-14T03:08:14.233Z,27.40
2023-02-14T03:09:14.229Z,32.40
2023-02-14T03:10:14.224Z,27.40
2023-02-14T03:11:14.233Z,32.60
2023-02-14T03:12:14.218Z,32.50
2023-02-14T03:13:14.218Z,27.50
2023-02-14T03:14:14.206Z,46.00
2023-02-14T03:15:14.197Z,36.40
2023-02-14T03:16:14.258Z,71.20
2023-02-14T03:17:14.223Z,89.50
2023-02-14T03:18:14.181Z,54.00
2023-02-14T03:19:14.173Z,90.30
2023-02-14T03:20:14.175Z,44.60
2023-02-14T03:21:14.179Z,41.50
2023-02-14T03:22:14.212Z,46.60
2023-02-14T03:23:14.185Z,38.50
2023-02-14T03:24:14.160Z,105.50
2023-02-14T03:25:14.153Z,151.70
2023-02-14T03:26:14.143Z,85.60
2023-02-14T03:27:14.140Z,93.70
2023-02-14T03:28:14.145Z,42.40
2023-02-14T03:29:14.133Z,83.80
2023-02-14T03:30:14.173Z,86.60
2023-02-14T03:31:14.219Z,106.00
2023-02-14T03:32:14.154Z,52.40
2023-02-14T03:33:14.093Z,50.90
2023-02-14T03:34:14.122Z,31.70
2023-02-14T03:35:14.104Z,32.40
2023-02-14T03:36:14.074Z,75.20
2023-02-14T03:37:14.089Z,61.50
2023-02-14T03:38:14.065Z,50.30
2023-02-14T03:39:14.052Z,59.10
2023-02-14T03:40:14.061Z,72.40
2023-02-14T03:41:14.047Z,41.50
2023-02-14T03:42:14.053Z,37.50
2023-02-14T03:43:14.027Z,52.30
2023-02-14T03:44:14.046Z,84.10
2023-02-14T03:45:14.058Z,26.80
2023-02-14T03:46:14.055Z,108.90
2023-02-14T03:47:14.004Z,134.50
2023-02-14T03:48:14.023Z,27.90
2023-02-14T03:49:13.988Z,30.80
2023-02-14T03:50:14.015Z,18.50
2023-02-14T03:51:13.987Z,22.20
2023-02-14T03:52:13.977Z,25.30
2023-02-14T03:53:13.995Z,20.70
2023-02-14T03:54:13.990Z,18.70
2023-02-14T03:55:13.997Z,18.60
2023-02-14T03:56:13.961Z,23.60
2023-02-14T03:57:13.973Z,23.30
2023-02-14T03:58:13.956Z,23.80
2023-02-14T03:59:13.936Z,32.50
2023-02-14T04:00:13.956Z,42.00
2023-02-14T04:01:13.944Z,43.60
2023-02-14T04:02:13.956Z,28.00
2023-02-14T04:03:13.936Z,128.90
2023-02-14T04:04:13.911Z,157.30
2023-02-14T04:05:13.902Z,175.40
2023-02-14T04:06:13.906Z,60.40
2023-02-14T04:07:13.895Z,27.70
2023-02-14T04:08:13.909Z,65.40
2023-02-14T04:09:13.870Z,108.60
2023-02-14T04:10:13.879Z,48.10
2023-02-14T04:11:13.881Z,32.40
2023-02-14T04:12:13.861Z,60.00
2023-02-14T04:13:13.846Z,42.40
2023-02-14T04:14:13.844Z,30.20
2023-02-14T04:15:13.849Z,58.90
2023-02-14T04:16:13.928Z,64.50
2023-02-14T04:17:13.835Z,49.60
2023-02-14T04:18:13.817Z,81.10
2023-02-14T04:19:13.814Z,68.10
2023-02-14T04:20:13.824Z,77.80
2023-02-14T04:21:13.828Z,86.00
2023-02-14T04:22:13.808Z,183.80
2023-02-14T04:23:13.807Z,229.30
2023-02-14T04:24:13.795Z,160.80
2023-02-14T04:25:13.791Z,145.30
2023-02-14T04:26:13.796Z,73.60
2023-02-14T04:27:13.810Z,317.40
2023-02-14T04:28:13.771Z,157.40
2023-02-14T04:29:13.756Z,151.40
2023-02-14T04:30:13.802Z,168.00
2023-02-14T04:31:13.867Z,133.10
2023-02-14T04:32:13.892Z,136.30
2023-02-14T04:33:13.744Z,82.10
2023-02-14T04:34:13.724Z,122.00
2023-02-14T04:35:13.730Z,181.00
2023-02-14T04:36:13.737Z,123.20
2023-02-14T04:37:13.717Z,235.90
2023-02-14T04:38:13.731Z,89.30
2023-02-14T04:39:13.724Z,211.00
2023-02-14T04:40:13.696Z,109.60
2023-02-14T04:41:13.697Z,62.20
2023-02-14T04:42:13.738Z,88.50
2023-02-14T04:43:13.673Z,85.70
2023-02-14T04:44:13.710Z,132.20
2023-02-14T04:45:13.666Z,151.50
2023-02-14T04:46:13.771Z,83.00
2023-02-14T04:47:13.656Z,113.90
2023-02-14T04:48:13.652Z,86.00
2023-02-14T04:49:13.648Z,157.50
2023-02-14T04:50:13.682Z,134.60
2023-02-14T04:51:13.637Z,151.30
2023-02-14T04:52:13.623Z,126.70
2023-02-14T04:53:13.619Z,126.40
2023-02-14T04:54:13.608Z,104.60
2023-02-14T04:55:13.624Z,195.70
2023-02-14T04:56:13.599Z,80.90
2023-02-14T04:57:13.609Z,105.60
2023-02-14T04:58:13.588Z,142.10
2023-02-14T04:59:13.584Z,90.70
2023-02-14T05:00:13.602Z,98.20
2023-02-14T05:01:13.583Z,90.70
2023-02-14T05:02:13.626Z,133.20
2023-02-14T05:03:13.560Z,59.30
2023-02-14T05:04:13.547Z,91.70
2023-02-14T05:05:13.549Z,115.10
2023-02-14T05:06:13.547Z,66.80
2023-02-14T05:07:13.553Z,54.70
2023-02-14T05:08:13.531Z,100.90
2023-02-14T05:09:13.520Z,80.90
2023-02-14T05:10:13.514Z,43.70
2023-02-14T05:11:13.518Z,52.90
2023-02-14T05:12:13.523Z,52.60
2023-02-14T05:13:13.506Z,104.50
2023-02-14T05:14:13.525Z,75.10
2023-02-14T05:15:13.506Z,77.10
2023-02-14T05:16:13.507Z,79.40
2023-02-14T05:17:13.474Z,71.70
2023-02-14T05:18:13.481Z,79.90
2023-02-14T05:19:13.507Z,69.60
2023-02-14T05:20:13.464Z,94.20
2023-02-14T05:21:13.447Z,91.60
2023-02-14T05:22:13.495Z,58.40
2023-02-14T05:23:13.463Z,94.40
2023-02-14T05:24:13.437Z,74.80
2023-02-14T05:25:13.447Z,97.90
2023-02-14T05:26:13.417Z,49.40
2023-02-14T05:27:13.412Z,64.00
2023-02-14T05:28:13.407Z,79.60
2023-02-14T05:29:13.413Z,88.10
2023-02-14T05:30:13.429Z,85.10
2023-02-14T05:31:13.516Z,77.40
2023-02-14T05:32:13.482Z,103.20
2023-02-14T05:33:13.371Z,78.50
2023-02-14T05:34:13.367Z,77.40
2023-02-14T05:35:13.356Z,102.10
2023-02-14T05:36:13.356Z,62.50
2023-02-14T05:37:13.373Z,81.10
2023-02-14T05:38:13.339Z,99.10
2023-02-14T05:39:13.326Z,61.30
2023-02-14T05:40:13.324Z,69.70
2023-02-14T05:41:13.321Z,75.30
2023-02-14T05:42:13.316Z,81.30
2023-02-14T05:43:13.352Z,82.60
2023-02-14T05:44:13.329Z,97.90
2023-02-14T05:45:13.291Z,72.20
2023-02-14T05:46:13.384Z,56.30
2023-02-14T05:47:13.364Z,59.50
2023-02-14T05:48:13.293Z,63.20
2023-02-14T05:49:13.272Z,60.20
2023-02-14T05:50:13.266Z,52.70
2023-02-14T05:51:13.250Z,81.70
2023-02-14T05:52:13.264Z,88.70
2023-02-14T05:53:13.263Z,75.30
2023-02-14T05:54:13.251Z,49.30
2023-02-14T05:55:13.220Z,87.40
2023-02-14T05:56:13.208Z,40.20
2023-02-14T05:57:13.210Z,77.90
2023-02-14T05:58:13.207Z,66.90
2023-02-14T05:59:13.201Z,73.10
2023-02-14T06:00:13.214Z,73.60
2023-02-14T06:01:13.199Z,57.60
2023-02-14T06:02:13.230Z,63.20
2023-02-14T06:03:13.204Z,86.60
2023-02-14T06:04:13.206Z,86.70
2023-02-14T06:05:13.157Z,71.80
2023-02-14T06:06:13.166Z,90.80
2023-02-14T06:07:13.158Z,92.10
2023-02-14T06:08:13.144Z,82.70
2023-02-14T06:09:13.136Z,52.20
2023-02-14T06:10:13.138Z,89.40
2023-02-14T06:11:13.150Z,65.80
2023-02-14T06:12:13.152Z,79.80
2023-02-14T06:13:13.119Z,69.90
2023-02-14T06:14:13.138Z,89.40
2023-02-14T06:15:13.101Z,51.40
2023-02-14T06:16:13.151Z,80.60
2023-02-14T06:17:13.117Z,77.30
2023-02-14T06:18:13.110Z,112.10
2023-02-14T06:19:13.092Z,60.90
2023-02-14T06:20:13.080Z,62.00
2023-02-14T06:21:13.076Z,40.90
2023-02-14T06:22:13.077Z,60.80
2023-02-14T06:23:13.084Z,84.40
2023-02-14T06:24:13.061Z,78.00
2023-02-14T06:25:13.052Z,92.60
2023-02-14T06:26:13.049Z,73.30
2023-02-14T06:27:13.135Z,51.50
2023-02-14T06:28:13.053Z,120.70
2023-02-14T06:29:13.036Z,91.10
2023-02-14T06:30:13.044Z,64.60
2023-02-14T06:31:13.106Z,57.70
2023-02-14T06:32:13.199Z,86.70
2023-02-14T06:33:13.009Z,36.70
2023-02-14T06:34:14.418Z,45.20
2023-02-14T06:35:13.001Z,77.40
2023-02-14T06:36:12.991Z,83.90
2023-02-14T06:37:13.001Z,82.90
2023-02-14T06:38:12.984Z,75.90
2023-02-14T06:39:12.963Z,91.20
2023-02-14T06:40:12.994Z,85.80
2023-02-14T06:41:12.956Z,69.70
2023-02-14T06:42:12.961Z,11.10
2023-02-14T06:43:12.964Z,11.90
2023-02-14T06:44:12.955Z,11.80
2023-02-14T06:45:12.938Z,13.50
2023-02-14T06:46:13.006Z,12.00
2023-02-14T06:47:12.924Z,81.90
2023-02-14T06:48:12.919Z,70.60
2023-02-14T06:49:12.914Z,82.60
2023-02-14T06:50:12.921Z,67.20
2023-02-14T06:51:12.921Z,50.40
2023-02-14T06:52:12.892Z,180.30
2023-02-14T06:53:12.885Z,128.10
2023-02-14T06:54:12.886Z,108.80
2023-02-14T06:55:12.874Z,143.20
2023-02-14T06:56:12.883Z,74.40
2023-02-14T06:57:12.868Z,67.00
2023-02-14T06:58:12.891Z,56.30
2023-02-14T06:59:12.857Z,54.20
2023-02-14T07:00:12.861Z,79.10
2023-02-14T07:01:12.873Z,182.00
2023-02-14T07:02:12.881Z,76.30
2023-02-14T07:03:12.828Z,85.60
2023-02-14T07:04:12.856Z,80.80
2023-02-14T07:05:12.823Z,122.30
2023-02-14T07:06:12.815Z,112.10
2023-02-14T07:07:12.819Z,71.90
2023-02-14T07:08:12.818Z,71.10
2023-02-14T07:09:12.790Z,81.80
2023-02-14T07:10:12.788Z,35.10
2023-02-14T07:11:12.783Z,56.80
2023-02-14T07:12:12.772Z,71.40
2023-02-14T07:13:12.773Z,82.60
2023-02-14T07:14:12.774Z,64.80
2023-02-14T07:15:12.758Z,84.90
2023-02-14T07:16:12.839Z,59.40
2023-02-14T07:17:12.738Z,54.50
2023-02-14T07:18:12.770Z,64.00
2023-02-14T07:19:12.725Z,40.50
2023-02-14T07:20:12.745Z,35.80
2023-02-14T07:21:12.714Z,52.10
2023-02-14T07:22:12.707Z,58.90
2023-02-14T07:23:12.725Z,83.10
2023-02-14T07:24:12.703Z,95.60
2023-02-14T07:25:12.715Z,87.30
2023-02-14T07:26:12.685Z,85.00
2023-02-14T07:27:12.674Z,39.40
2023-02-14T07:28:12.695Z,94.30
2023-02-14T07:29:12.694Z,80.50
2023-02-14T07:30:12.714Z,93.30
2023-02-14T07:31:12.828Z,80.50
2023-02-14T07:32:12.799Z,148.50
2023-02-14T07:33:12.666Z,75.30
2023-02-14T07:34:12.626Z,59.10
2023-02-14T07:35:14.919Z,110.80
2023-02-14T07:36:12.622Z,153.70
2023-02-14T07:37:12.605Z,124.10
2023-02-14T07:38:12.627Z,69.40
2023-02-14T07:39:12.640Z,90.20
2023-02-14T07:40:15.279Z,76.20
2023-02-14T07:41:12.653Z,166.00
2023-02-14T07:42:12.584Z,81.50
2023-02-14T07:43:12.590Z,71.80
2023-02-14T07:44:12.604Z,26.80
2023-02-14T07:45:22.033Z,99.70
2023-02-14T07:46:13.566Z,69.10
2023-02-14T07:47:12.551Z,57.00
2023-02-14T07:48:12.549Z,61.20
2023-02-14T07:49:12.527Z,92.90
2023-02-14T07:50:12.543Z,118.30
2023-02-14T07:51:12.529Z,46.40
2023-02-14T07:52:12.530Z,120.40
2023-02-14T07:53:12.511Z,82.10
2023-02-14T07:54:12.500Z,90.80
2023-02-14T07:55:12.495Z,33.10
2023-02-14T07:56:12.493Z,30.50
2023-02-14T07:57:12.505Z,50.90
2023-02-14T07:58:12.486Z,57.60
2023-02-14T07:59:12.480Z,67.80
2023-02-14T08:00:12.492Z,76.90
2023-02-14T08:01:12.513Z,42.60
2023-02-14T08:02:12.453Z,119.40
2023-02-14T08:03:12.445Z,116.00
2023-02-14T08:04:12.451Z,64.20
2023-02-14T08:05:12.508Z,168.50
2023-02-14T08:06:12.464Z,88.40
2023-02-14T08:07:12.451Z,148.20
2023-02-14T08:08:12.430Z,238.40
2023-02-14T08:09:12.416Z,131.40
2023-02-14T08:10:13.229Z,300.40
2023-02-14T08:11:12.399Z,164.00
2023-02-14T08:12:12.406Z,184.80
2023-02-14T08:13:12.412Z,155.40
2023-02-14T08:14:12.390Z,85.10
2023-02-14T08:15:12.387Z,364.20
2023-02-14T08:16:12.423Z,344.90
2023-02-14T08:17:12.364Z,286.90
2023-02-14T08:18:12.361Z,309.00
2023-02-14T08:19:12.351Z,323.40
2023-02-14T08:20:12.350Z,195.60
2023-02-14T08:21:12.358Z,127.00
2023-02-14T08:22:12.352Z,50.60
2023-02-14T08:23:12.327Z,108.80
2023-02-14T08:24:12.331Z,161.00
2023-02-14T08:25:12.321Z,136.70
2023-02-14T08:26:12.349Z,129.40
2023-02-14T08:27:12.306Z,83.80
2023-02-14T08:28:12.302Z,55.50
2023-02-14T08:29:12.293Z,61.80
2023-02-14T08:30:12.339Z,532.40
2023-02-14T08:31:12.331Z,292.80
2023-02-14T08:32:12.501Z,261.10
2023-02-14T08:33:12.274Z,138.00
2023-02-14T08:34:12.279Z,102.10
2023-02-14T08:35:12.272Z,61.60
2023-02-14T08:36:12.254Z,91.10
2023-02-14T08:37:12.263Z,65.50
2023-02-14T08:38:12.246Z,89.60
2023-02-14T08:39:12.243Z,95.30
2023-02-14T08:40:12.234Z,78.00
2023-02-14T08:41:12.232Z,69.90
2023-02-14T08:42:12.241Z,58.70
2023-02-14T08:43:12.213Z,38.70
2023-02-14T08:44:12.208Z,106.90
2023-02-14T08:45:12.221Z,67.60
2023-02-14T08:46:12.277Z,44.00
2023-02-14T08:47:12.186Z,42.80
2023-02-14T08:48:12.210Z,26.10
2023-02-14T08:49:12.212Z,46.50
2023-02-14T08:50:12.165Z,32.50
2023-02-14T08:51:12.176Z,50.80
2023-02-14T08:52:12.185Z,178.60
2023-02-14T08:53:12.159Z,238.10
2023-02-14T08:54:12.157Z,91.40
2023-02-14T08:55:12.159Z,311.90
2023-02-14T08:56:12.147Z,351.00
2023-02-14T08:57:12.139Z,119.60
2023-02-14T08:58:12.157Z,100.50
2023-02-14T08:59:12.136Z,46.80
2023-02-14T09:00:12.148Z,105.80
2023-02-14T09:01:12.180Z,87.30
2023-02-14T09:02:12.113Z,50.50
2023-02-14T09:03:12.102Z,134.10
2023-02-14T09:04:12.174Z,60.20
2023-02-14T09:05:12.089Z,109.60
2023-02-14T09:06:12.114Z,48.30
2023-02-14T09:07:12.071Z,62.40
2023-02-14T09:08:12.195Z,47.80
2023-02-14T09:09:12.149Z,77.30
2023-02-14T09:10:12.109Z,95.90
2023-02-14T09:11:12.156Z,37.80
2023-02-14T09:12:12.088Z,33.60
2023-02-14T09:13:12.067Z,104.30
2023-02-14T09:14:12.038Z,91.80
2023-02-14T09:15:12.040Z,97.90
2023-02-14T09:16:12.183Z,38.40
2023-02-14T09:17:12.066Z,55.00
2023-02-14T09:18:12.038Z,46.90
2023-02-14T09:19:12.071Z,207.90
2023-02-14T09:20:12.082Z,60.10
2023-02-14T09:21:12.012Z,111.10
2023-02-14T09:22:12.007Z,218.20
2023-02-14T09:23:11.989Z,44.30
2023-02-14T09:24:11.988Z,55.00
2023-02-14T09:25:12.003Z,87.00
2023-02-14T09:26:11.981Z,58.50
2023-02-14T09:27:11.973Z,36.50
2023-02-14T09:28:11.982Z,236.30
2023-02-14T09:29:11.974Z,52.80
2023-02-14T09:30:12.001Z,146.60
2023-02-14T09:31:12.041Z,69.10
2023-02-14T09:32:12.111Z,90.30
2023-02-14T09:33:11.944Z,60.20
2023-02-14T09:34:11.945Z,60.80
2023-02-14T09:35:11.953Z,76.80
2023-02-14T09:36:11.971Z,135.40
2023-02-14T09:37:11.926Z,34.50
2023-02-14T09:38:11.918Z,54.20
2023-02-14T09:39:11.918Z,72.80
2023-02-14T09:40:11.939Z,65.70
2023-02-14T09:41:11.915Z,61.80
2023-02-14T09:42:11.894Z,36.80
2023-02-14T09:43:11.897Z,49.60
2023-02-14T09:44:11.885Z,109.00
2023-02-14T09:45:11.882Z,43.10
2023-02-14T09:46:12.061Z,75.80
2023-02-14T09:47:11.870Z,45.90
2023-02-14T09:48:11.858Z,101.50
2023-02-14T09:49:12.048Z,37.40
2023-02-14T09:50:11.914Z,63.50
2023-02-14T09:51:11.833Z,53.60
2023-02-14T09:52:11.858Z,112.80
2023-02-14T09:53:11.855Z,39.80
2023-02-14T09:54:11.844Z,27.00
2023-02-14T09:55:11.813Z,41.70
2023-02-14T09:56:11.820Z,56.00
2023-02-14T09:57:11.808Z,33.60
2023-02-14T09:58:11.802Z,50.90
2023-02-14T09:59:11.809Z,42.60
2023-02-14T10:00:11.788Z,28.40
2023-02-14T10:01:11.795Z,20.90
2023-02-14T10:02:11.799Z,46.50
2023-02-14T10:03:11.791Z,55.30
2023-02-14T10:04:12.483Z,28.30
2023-02-14T10:05:11.753Z,25.40
2023-02-14T10:06:11.754Z,31.40
2023-02-14T10:07:11.824Z,26.10
2023-02-14T10:08:11.744Z,48.50
2023-02-14T10:09:11.778Z,44.50
2023-02-14T10:10:11.728Z,77.90
2023-02-14T10:11:11.723Z,97.60
2023-02-14T10:12:11.714Z,58.50
2023-02-14T10:13:11.706Z,61.40
2023-02-14T10:14:11.703Z,54.30
2023-02-14T10:15:11.722Z,122.10
2023-02-14T10:16:11.711Z,23.40
2023-02-14T10:17:11.681Z,53.80
2023-02-14T10:18:11.686Z,35.30
2023-02-14T10:19:11.673Z,44.40
2023-02-14T10:20:11.677Z,41.00
2023-02-14T10:21:11.689Z,101.00
2023-02-14T10:22:11.665Z,37.50
2023-02-14T10:23:11.655Z,66.90
2023-02-14T10:24:11.648Z,36.50
2023-02-14T10:25:12.564Z,35.10
2023-02-14T10:26:11.638Z,30.50
2023-02-14T10:27:11.702Z,49.40
2023-02-14T10:28:11.638Z,26.90
2023-02-14T10:29:11.625Z,68.90
2023-02-14T10:30:11.639Z,22.10
2023-02-14T10:31:11.644Z,47.00
2023-02-14T10:32:11.660Z,39.80
2023-02-14T10:33:11.616Z,58.30
2023-02-14T10:34:11.609Z,30.20
2023-02-14T10:35:11.591Z,26.50
2023-02-14T10:36:11.589Z,24.30
2023-02-14T10:37:11.597Z,22.30
2023-02-14T10:38:11.579Z,31.70
2023-02-14T10:39:11.583Z,24.10
2023-02-14T10:40:11.567Z,37.00
2023-02-14T10:41:11.555Z,38.40
2023-02-14T10:42:11.561Z,31.80
2023-02-14T10:43:11.543Z,45.00
2023-02-14T10:44:11.589Z,37.60
2023-02-14T10:45:11.556Z,42.80
2023-02-14T10:46:11.593Z,58.50
2023-02-14T10:47:11.525Z,42.30
2023-02-14T10:48:11.521Z,26.00
2023-02-14T10:49:11.516Z,25.50
2023-02-14T10:50:11.536Z,28.60
2023-02-14T10:51:11.498Z,32.60
2023-02-14T10:52:11.501Z,33.50
2023-02-14T10:53:11.525Z,47.00
2023-02-14T10:54:11.524Z,22.20
2023-02-14T10:55:13.911Z,33.40
2023-02-14T10:56:11.486Z,23.90
2023-02-14T10:57:11.477Z,19.10
2023-02-14T10:58:11.467Z,30.00
2023-02-14T10:59:11.479Z,28.50
2023-02-14T11:00:11.601Z,29.60
2023-02-14T11:01:11.496Z,23.10
2023-02-14T11:02:11.475Z,22.50
2023-02-14T11:03:11.474Z,20.30
2023-02-14T11:04:11.455Z,22.20
2023-02-14T11:05:11.429Z,17.40
2023-02-14T11:06:11.446Z,20.60
2023-02-14T11:07:11.424Z,29.40
2023-02-14T11:08:11.440Z,23.00
2023-02-14T11:09:11.412Z,24.30
2023-02-14T11:10:11.415Z,22.30
2023-02-14T11:11:11.402Z,23.40
2023-02-14T11:12:11.408Z,21.90
2023-02-14T11:13:11.393Z,21.80
2023-02-14T11:14:11.383Z,21.40
2023-02-14T11:15:11.369Z,23.00
2023-02-14T11:16:11.410Z,24.20
2023-02-14T11:17:11.366Z,36.60
2023-02-14T11:18:11.375Z,32.00
2023-02-14T11:19:11.352Z,37.50
2023-02-14T11:20:11.343Z,28.30
2023-02-14T11:21:11.342Z,25.20
2023-02-14T11:22:11.355Z,22.30
2023-02-14T11:23:11.346Z,24.20
2023-02-14T11:24:11.337Z,34.90
2023-02-14T11:25:11.317Z,24.30
2023-02-14T11:26:11.319Z,22.40
2023-02-14T11:27:11.305Z,25.00
2023-02-14T11:28:11.367Z,40.30
2023-02-14T11:29:11.295Z,22.90
2023-02-14T11:30:11.322Z,21.00
2023-02-14T11:31:11.327Z,39.40
2023-02-14T11:32:11.281Z,34.50
2023-02-14T11:33:11.270Z,25.70
2023-02-14T11:34:11.292Z,35.90
2023-02-14T11:35:11.279Z,34.00
2023-02-14T11:36:11.264Z,27.90
2023-02-14T11:37:11.250Z,25.30
2023-02-14T11:38:11.243Z,30.20
2023-02-14T11:39:11.244Z,25.50
2023-02-14T11:40:11.271Z,27.60
2023-02-14T11:41:11.271Z,34.30
2023-02-14T11:42:11.252Z,37.80
2023-02-14T11:43:14.264Z,26.10
2023-02-14T11:44:11.245Z,32.00
2023-02-14T11:45:11.230Z,30.40
2023-02-14T11:46:11.237Z,31.80
2023-02-14T11:47:11.203Z,30.10
2023-02-14T11:48:11.208Z,77.00
2023-02-14T11:49:11.192Z,29.70
2023-02-14T11:50:11.182Z,27.80
2023-02-14T11:51:11.193Z,31.00
2023-02-14T11:52:11.195Z,29.80
2023-02-14T11:53:11.172Z,29.90
2023-02-14T11:54:11.195Z,28.20
2023-02-14T11:55:11.157Z,26.30
2023-02-14T11:56:11.153Z,25.10
2023-02-14T11:57:11.147Z,28.70
2023-02-14T11:58:11.149Z,28.60
2023-02-14T11:59:11.158Z,39.40
2023-02-14T12:00:11.153Z,33.20
2023-02-14T12:01:11.122Z,29.80
2023-02-14T12:02:11.131Z,26.00
2023-02-14T12:03:11.110Z,34.50
2023-02-14T12:04:11.113Z,29.40
2023-02-14T12:05:11.116Z,30.80
2023-02-14T12:06:11.118Z,30.40
2023-02-14T12:07:11.113Z,29.10
2023-02-14T12:08:11.105Z,30.20
2023-02-14T12:09:11.087Z,28.00
2023-02-14T12:10:11.078Z,28.20
2023-02-14T12:11:11.116Z,27.80
2023-02-14T12:12:11.088Z,35.80
2023-02-14T12:13:11.128Z,30.90
2023-02-14T12:14:11.097Z,38.50
2023-02-14T12:15:11.055Z,29.80
2023-02-14T12:16:11.117Z,32.80
2023-02-14T12:17:11.050Z,36.80
2023-02-14T12:18:11.070Z,30.00
2023-02-14T12:19:11.027Z,29.50
2023-02-14T12:20:11.030Z,26.70
2023-02-14T12:21:11.020Z,27.60
2023-02-14T12:22:11.084Z,25.10
2023-02-14T12:23:11.006Z,36.00
2023-02-14T12:24:11.008Z,28.90
2023-02-14T12:25:10.997Z,32.70
2023-02-14T12:26:11.024Z,28.00
2023-02-14T12:27:11.000Z,27.30
2023-02-14T12:28:11.000Z,33.10
2023-02-14T12:29:10.979Z,30.10
2023-02-14T12:30:10.994Z,34.90
2023-02-14T12:31:11.053Z,29.80
2023-02-14T12:32:11.226Z,30.00
2023-02-14T12:33:10.942Z,28.20
2023-02-14T12:34:10.958Z,29.80
2023-02-14T12:35:10.927Z,27.50
2023-02-14T12:36:10.931Z,27.10
2023-02-14T12:37:11.071Z,29.50
2023-02-14T12:38:10.944Z,28.00
2023-02-14T12:39:10.933Z,26.20
2023-02-14T12:40:10.908Z,27.30
2023-02-14T12:41:10.897Z,25.10
2023-02-14T12:42:10.914Z,26.50
2023-02-14T12:43:10.914Z,27.80
2023-02-14T12:44:10.892Z,25.70
2023-02-14T12:45:10.912Z,24.60
2023-02-14T12:46:10.900Z,29.50
2023-02-14T12:47:10.882Z,28.00
2023-02-14T12:48:10.887Z,25.80